sensor_id;sensor_type;location;lat;lon;timestamp;pressure;altitude;pressure_sealevel;temperature;humidity
71476;BME280;59286;59.274;17.974;2023-04-28T00:01:23;100780.47;;;1.93;89.69
71476;BME280;59286;59.274;17.974;2023-04-28T00:03:48;100767.72;;;1.86;89.31
71476;BME280;59286;59.274;17.974;2023-04-28T00:06:13;100780.53;;;1.81;89.34
71476;BME280;59286;59.274;17.974;2023-04-28T00:08:39;100784.56;;;1.77;89.13
71476;BME280;59286;59.274;17.974;2023-04-28T00:11:11;100783.38;;;1.68;90.07
71476;BME280;59286;59.274;17.974;2023-04-28T00:13:37;100790.03;;;1.64;89.75
71476;BME280;59286;59.274;17.974;2023-04-28T00:16:03;100783.66;;;1.55;89.72
71476;BME280;59286;59.274;17.974;2023-04-28T00:18:28;100783.09;;;1.53;90.96
71476;BME280;59286;59.274;17.974;2023-04-28T00:20:54;100781.31;;;1.54;91.49
71476;BME280;59286;59.274;17.974;2023-04-28T00:23:20;100782.53;;;1.51;90.85
71476;BME280;59286;59.274;17.974;2023-04-28T00:25:53;100787.25;;;1.54;90.74
71476;BME280;59286;59.274;17.974;2023-04-28T00:28:18;100780.44;;;1.48;90.75
71476;BME280;59286;59.274;17.974;2023-04-28T00:30:44;100786.72;;;1.52;89.65
71476;BME280;59286;59.274;17.974;2023-04-28T00:33:10;100787.94;;;1.50;89.68
71476;BME280;59286;59.274;17.974;2023-04-28T00:35:36;100791.66;;;1.42;89.85
71476;BME280;59286;59.274;17.974;2023-04-28T00:38:01;100787.41;;;1.36;89.99
71476;BME280;59286;59.274;17.974;2023-04-28T00:40:34;100786.09;;;1.34;90.35
71476;BME280;59286;59.274;17.974;2023-04-28T00:42:59;100793.03;;;1.33;90.79
71476;BME280;59286;59.274;17.974;2023-04-28T00:45:25;100801.03;;;1.32;90.57
71476;BME280;59286;59.274;17.974;2023-04-28T00:47:50;100795.84;;;1.32;90.52
71476;BME280;59286;59.274;17.974;2023-04-28T00:50:16;100794.66;;;1.23;91.14
71476;BME280;59286;59.274;17.974;2023-04-28T00:52:42;100807.41;;;1.29;91.58
71476;BME280;59286;59.274;17.974;2023-04-28T00:55:08;100798.13;;;1.28;91.19
71476;BME280;59286;59.274;17.974;2023-04-28T00:57:34;100808.22;;;1.30;91.55
71476;BME280;59286;59.274;17.974;2023-04-28T01:00:00;100801.25;;;1.30;91.35
71476;BME280;59286;59.274;17.974;2023-04-28T01:02:26;100805.88;;;1.17;91.86
71476;BME280;59286;59.274;17.974;2023-04-28T01:04:55;100798.94;;;1.17;92.73
71476;BME280;59286;59.274;17.974;2023-04-28T01:07:22;100804.66;;;1.19;92.59
71476;BME280;59286;59.274;17.974;2023-04-28T01:09:47;100796.69;;;1.09;92.71
71476;BME280;59286;59.274;17.974;2023-04-28T01:12:12;100809.69;;;1.14;93.17
71476;BME280;59286;59.274;17.974;2023-04-28T01:14:38;100812.59;;;1.18;93.02
71476;BME280;59286;59.274;17.974;2023-04-28T01:17:04;100802.19;;;1.13;92.63
71476;BME280;59286;59.274;17.974;2023-04-28T01:19:29;100800.16;;;1.15;92.77
71476;BME280;59286;59.274;17.974;2023-04-28T01:21:55;100805.09;;;1.16;93.37
71476;BME280;59286;59.274;17.974;2023-04-28T01:24:20;100808.56;;;1.10;92.89
71476;BME280;59286;59.274;17.974;2023-04-28T01:26:45;100812.50;;;1.13;93.00
71476;BME280;59286;59.274;17.974;2023-04-28T01:29:11;100812.63;;;1.06;92.69
71476;BME280;59286;59.274;17.974;2023-04-28T01:31:36;100802.41;;;0.99;92.84
71476;BME280;59286;59.274;17.974;2023-04-28T01:34:02;100814.88;;;1.03;92.39
71476;BME280;59286;59.274;17.974;2023-04-28T01:36:27;100809.81;;;0.96;91.36
71476;BME280;59286;59.274;17.974;2023-04-28T01:38:53;100808.69;;;0.92;92.33
71476;BME280;59286;59.274;17.974;2023-04-28T01:41:19;100810.72;;;0.90;91.68
71476;BME280;59286;59.274;17.974;2023-04-28T01:43:44;100817.91;;;0.88;91.58
71476;BME280;59286;59.274;17.974;2023-04-28T01:46:10;100813.75;;;0.87;91.38
71476;BME280;59286;59.274;17.974;2023-04-28T01:48:35;100809.72;;;0.79;91.61
71476;BME280;59286;59.274;17.974;2023-04-28T01:51:00;100827.88;;;0.84;91.93
71476;BME280;59286;59.274;17.974;2023-04-28T01:53:26;100814.78;;;0.74;92.31
71476;BME280;59286;59.274;17.974;2023-04-28T01:55:52;100812.63;;;0.71;92.82
71476;BME280;59286;59.274;17.974;2023-04-28T01:58:18;100814.41;;;0.71;93.20
71476;BME280;59286;59.274;17.974;2023-04-28T02:00:43;100789.88;;;0.57;92.89
71476;BME280;59286;59.274;17.974;2023-04-28T02:03:08;100808.72;;;0.69;93.23
71476;BME280;59286;59.274;17.974;2023-04-28T02:05:34;100817.56;;;0.73;92.70
71476;BME280;59286;59.274;17.974;2023-04-28T02:07:59;100820.69;;;0.75;93.14
71476;BME280;59286;59.274;17.974;2023-04-28T02:10:24;100818.91;;;0.75;93.31
71476;BME280;59286;59.274;17.974;2023-04-28T02:12:50;100819.72;;;0.76;92.85
71476;BME280;59286;59.274;17.974;2023-04-28T02:15:15;100807.47;;;0.71;92.75
71476;BME280;59286;59.274;17.974;2023-04-28T02:17:41;100819.94;;;0.74;93.36
71476;BME280;59286;59.274;17.974;2023-04-28T02:20:06;100824.88;;;0.76;93.50
71476;BME280;59286;59.274;17.974;2023-04-28T02:22:32;100818.81;;;0.70;92.59
71476;BME280;59286;59.274;17.974;2023-04-28T02:24:57;100813.31;;;0.67;92.90
71476;BME280;59286;59.274;17.974;2023-04-28T02:27:22;100824.72;;;0.71;92.20
71476;BME280;59286;59.274;17.974;2023-04-28T02:29:48;100830.69;;;0.71;92.43
71476;BME280;59286;59.274;17.974;2023-04-28T02:32:13;100826.41;;;0.77;92.79
71476;BME280;59286;59.274;17.974;2023-04-28T02:34:39;100825.19;;;0.68;93.27
71476;BME280;59286;59.274;17.974;2023-04-28T02:37:04;100836.63;;;0.72;93.61
71476;BME280;59286;59.274;17.974;2023-04-28T02:39:30;100822.03;;;0.66;92.91
71476;BME280;59286;59.274;17.974;2023-04-28T02:41:57;100829.88;;;0.71;92.30
71476;BME280;59286;59.274;17.974;2023-04-28T02:44:22;100823.81;;;0.65;92.38
71476;BME280;59286;59.274;17.974;2023-04-28T02:46:48;100824.72;;;0.71;92.61
71476;BME280;59286;59.274;17.974;2023-04-28T02:49:13;100831.47;;;0.72;92.34
71476;BME280;59286;59.274;17.974;2023-04-28T02:51:39;100834.06;;;0.72;92.13
71476;BME280;59286;59.274;17.974;2023-04-28T02:54:04;100840.91;;;0.78;91.26
71476;BME280;59286;59.274;17.974;2023-04-28T02:56:30;100828.91;;;0.72;91.45
71476;BME280;59286;59.274;17.974;2023-04-28T02:58:55;100850.31;;;0.84;92.46
71476;BME280;59286;59.274;17.974;2023-04-28T03:01:21;100847.06;;;0.88;91.75
71476;BME280;59286;59.274;17.974;2023-04-28T03:03:47;100851.22;;;1.01;92.13
71476;BME280;59286;59.274;17.974;2023-04-28T03:06:12;100852.81;;;1.02;92.53
71476;BME280;59286;59.274;17.974;2023-04-28T03:08:37;100852.56;;;1.15;92.00
71476;BME280;59286;59.274;17.974;2023-04-28T03:11:03;100851.69;;;1.21;91.67
71476;BME280;59286;59.274;17.974;2023-04-28T03:13:29;100860.28;;;1.38;91.97
71476;BME280;59286;59.274;17.974;2023-04-28T03:15:54;100856.91;;;1.38;93.05
71476;BME280;59286;59.274;17.974;2023-04-28T03:18:20;100860.72;;;1.47;93.06
71476;BME280;59286;59.274;17.974;2023-04-28T03:20:46;100857.41;;;1.63;92.67
71476;BME280;59286;59.274;17.974;2023-04-28T03:23:12;100855.28;;;1.71;92.15
71476;BME280;59286;59.274;17.974;2023-04-28T03:25:37;100852.88;;;1.81;92.22
71476;BME280;59286;59.274;17.974;2023-04-28T03:28:02;100858.31;;;1.96;91.73
71476;BME280;59286;59.274;17.974;2023-04-28T03:30:28;100856.38;;;2.04;91.46
71476;BME280;59286;59.274;17.974;2023-04-28T03:32:53;100860.16;;;2.13;90.88
71476;BME280;59286;59.274;17.974;2023-04-28T03:35:18;100848.34;;;2.17;90.51
71476;BME280;59286;59.274;17.974;2023-04-28T03:37:43;100855.16;;;2.23;90.32
71476;BME280;59286;59.274;17.974;2023-04-28T03:40:09;100857.38;;;2.31;89.38
71476;BME280;59286;59.274;17.974;2023-04-28T03:42:35;100867.81;;;2.36;90.27
71476;BME280;59286;59.274;17.974;2023-04-28T03:45:00;100865.53;;;2.39;89.56
71476;BME280;59286;59.274;17.974;2023-04-28T03:47:25;100862.03;;;2.45;88.90
71476;BME280;59286;59.274;17.974;2023-04-28T03:49:51;100865.22;;;2.52;89.25
71476;BME280;59286;59.274;17.974;2023-04-28T03:52:16;100866.66;;;2.60;88.69
71476;BME280;59286;59.274;17.974;2023-04-28T03:54:42;100870.09;;;2.65;89.01
71476;BME280;59286;59.274;17.974;2023-04-28T03:57:07;100880.31;;;2.72;87.92
71476;BME280;59286;59.274;17.974;2023-04-28T03:59:32;100880.53;;;2.70;88.48
71476;BME280;59286;59.274;17.974;2023-04-28T04:01:58;100869.97;;;2.72;88.44
71476;BME280;59286;59.274;17.974;2023-04-28T04:04:23;100873.41;;;2.77;88.12
71476;BME280;59286;59.274;17.974;2023-04-28T04:06:48;100881.25;;;2.82;88.36
71476;BME280;59286;59.274;17.974;2023-04-28T04:09:14;100875.28;;;2.82;88.55
71476;BME280;59286;59.274;17.974;2023-04-28T04:11:39;100878.41;;;2.84;87.80
71476;BME280;59286;59.274;17.974;2023-04-28T04:14:05;100879.28;;;2.89;88.20
71476;BME280;59286;59.274;17.974;2023-04-28T04:16:30;100885.84;;;2.97;88.12
71476;BME280;59286;59.274;17.974;2023-04-28T04:18:56;100886.41;;;2.99;87.02
71476;BME280;59286;59.274;17.974;2023-04-28T04:21:21;100880.78;;;3.02;87.13
71476;BME280;59286;59.274;17.974;2023-04-28T04:23:46;100883.13;;;3.04;87.02
71476;BME280;59286;59.274;17.974;2023-04-28T04:26:12;100881.72;;;2.96;86.47
71476;BME280;59286;59.274;17.974;2023-04-28T04:28:37;100883.19;;;2.92;86.76
71476;BME280;59286;59.274;17.974;2023-04-28T04:31:02;100890.03;;;2.98;86.24
71476;BME280;59286;59.274;17.974;2023-04-28T04:33:28;100887.19;;;3.00;86.75
71476;BME280;59286;59.274;17.974;2023-04-28T04:35:53;100895.44;;;3.13;86.53
71476;BME280;59286;59.274;17.974;2023-04-28T04:38:19;100888.56;;;3.24;86.42
71476;BME280;59286;59.274;17.974;2023-04-28T04:40:44;100884.75;;;3.26;85.97
71476;BME280;59286;59.274;17.974;2023-04-28T04:43:09;100899.94;;;3.39;85.98
71476;BME280;59286;59.274;17.974;2023-04-28T04:45:35;100894.41;;;3.52;85.96
71476;BME280;59286;59.274;17.974;2023-04-28T04:48:01;100893.97;;;3.60;85.51
71476;BME280;59286;59.274;17.974;2023-04-28T04:50:26;100891.94;;;3.62;85.76
71476;BME280;59286;59.274;17.974;2023-04-28T04:52:51;100907.06;;;3.70;84.61
71476;BME280;59286;59.274;17.974;2023-04-28T04:55:18;100894.91;;;3.71;84.92
71476;BME280;59286;59.274;17.974;2023-04-28T04:57:44;100899.53;;;3.69;84.89
71476;BME280;59286;59.274;17.974;2023-04-28T05:00:09;100908.16;;;3.74;85.10
71476;BME280;59286;59.274;17.974;2023-04-28T05:02:35;100906.13;;;3.76;84.63
71476;BME280;59286;59.274;17.974;2023-04-28T05:05:00;100911.84;;;3.78;84.88
71476;BME280;59286;59.274;17.974;2023-04-28T05:07:26;100908.22;;;3.79;84.57
71476;BME280;59286;59.274;17.974;2023-04-28T05:09:51;100917.78;;;3.79;84.11
71476;BME280;59286;59.274;17.974;2023-04-28T05:12:16;100916.78;;;3.80;84.75
71476;BME280;59286;59.274;17.974;2023-04-28T05:14:42;100915.56;;;3.87;84.87
71476;BME280;59286;59.274;17.974;2023-04-28T05:17:07;100923.97;;;3.73;84.58
71476;BME280;59286;59.274;17.974;2023-04-28T05:19:32;100921.53;;;3.66;85.08
71476;BME280;59286;59.274;17.974;2023-04-28T05:21:58;100918.53;;;3.74;85.02
71476;BME280;59286;59.274;17.974;2023-04-28T05:24:24;100914.47;;;3.83;84.51
71476;BME280;59286;59.274;17.974;2023-04-28T05:26:50;100916.84;;;3.85;84.08
71476;BME280;59286;59.274;17.974;2023-04-28T05:29:16;100927.03;;;3.91;84.51
71476;BME280;59286;59.274;17.974;2023-04-28T05:31:42;100920.44;;;4.06;84.23
71476;BME280;59286;59.274;17.974;2023-04-28T05:34:07;100924.41;;;4.13;84.15
71476;BME280;59286;59.274;17.974;2023-04-28T05:36:32;100927.34;;;4.22;84.36
71476;BME280;59286;59.274;17.974;2023-04-28T05:38:58;100917.59;;;4.29;83.33
71476;BME280;59286;59.274;17.974;2023-04-28T05:41:24;100922.97;;;4.49;83.80
71476;BME280;59286;59.274;17.974;2023-04-28T05:43:50;100923.94;;;4.69;82.91
71476;BME280;59286;59.274;17.974;2023-04-28T05:46:16;100928.13;;;4.75;81.25
71476;BME280;59286;59.274;17.974;2023-04-28T05:48:41;100929.19;;;4.79;82.75
71476;BME280;59286;59.274;17.974;2023-04-28T05:51:07;100929.00;;;4.86;82.22
71476;BME280;59286;59.274;17.974;2023-04-28T05:53:32;100928.28;;;4.96;81.92
71476;BME280;59286;59.274;17.974;2023-04-28T05:55:57;100933.31;;;5.07;80.99
71476;BME280;59286;59.274;17.974;2023-04-28T05:58:23;100929.06;;;4.96;81.19
71476;BME280;59286;59.274;17.974;2023-04-28T06:00:48;100938.59;;;4.85;81.48
71476;BME280;59286;59.274;17.974;2023-04-28T06:03:13;100937.25;;;4.83;82.27
71476;BME280;59286;59.274;17.974;2023-04-28T06:05:42;100945.66;;;4.90;81.50
71476;BME280;59286;59.274;17.974;2023-04-28T06:08:08;100944.00;;;4.79;81.02
71476;BME280;59286;59.274;17.974;2023-04-28T06:10:33;100944.34;;;4.92;80.73
71476;BME280;59286;59.274;17.974;2023-04-28T06:12:58;100949.47;;;5.14;80.90
71476;BME280;59286;59.274;17.974;2023-04-28T06:15:24;100947.13;;;5.13;80.79
71476;BME280;59286;59.274;17.974;2023-04-28T06:17:49;100958.28;;;5.13;80.20
71476;BME280;59286;59.274;17.974;2023-04-28T06:20:15;100955.19;;;5.16;80.00
71476;BME280;59286;59.274;17.974;2023-04-28T06:22:40;100955.97;;;5.17;79.93
71476;BME280;59286;59.274;17.974;2023-04-28T06:25:07;100956.19;;;5.10;80.14
71476;BME280;59286;59.274;17.974;2023-04-28T06:27:32;100963.00;;;5.16;80.16
71476;BME280;59286;59.274;17.974;2023-04-28T06:29:58;100963.59;;;5.28;80.62
71476;BME280;59286;59.274;17.974;2023-04-28T06:32:23;100967.97;;;5.23;79.71
71476;BME280;59286;59.274;17.974;2023-04-28T06:34:49;100970.66;;;5.38;79.78
71476;BME280;59286;59.274;17.974;2023-04-28T06:37:14;100970.13;;;5.36;79.61
71476;BME280;59286;59.274;17.974;2023-04-28T06:39:39;100981.88;;;5.43;79.07
71476;BME280;59286;59.274;17.974;2023-04-28T06:42:05;100981.59;;;5.40;79.76
71476;BME280;59286;59.274;17.974;2023-04-28T06:44:30;100982.38;;;5.40;78.97
71476;BME280;59286;59.274;17.974;2023-04-28T06:46:55;100985.09;;;5.60;77.88
71476;BME280;59286;59.274;17.974;2023-04-28T06:49:21;100985.53;;;5.84;77.48
71476;BME280;59286;59.274;17.974;2023-04-28T06:51:46;100983.16;;;5.82;78.37
71476;BME280;59286;59.274;17.974;2023-04-28T06:54:11;100986.06;;;5.86;77.57
71476;BME280;59286;59.274;17.974;2023-04-28T06:56:37;100983.31;;;6.08;78.15
71476;BME280;59286;59.274;17.974;2023-04-28T06:59:03;100990.53;;;6.01;76.22
71476;BME280;59286;59.274;17.974;2023-04-28T07:01:28;100984.06;;;6.03;75.83
71476;BME280;59286;59.274;17.974;2023-04-28T07:03:53;100984.69;;;6.35;77.13
71476;BME280;59286;59.274;17.974;2023-04-28T07:06:19;100992.25;;;6.42;74.92
71476;BME280;59286;59.274;17.974;2023-04-28T07:08:44;101000.06;;;6.37;74.99
71476;BME280;59286;59.274;17.974;2023-04-28T07:11:10;100993.28;;;6.41;74.17
71476;BME280;59286;59.274;17.974;2023-04-28T07:13:35;101000.84;;;6.42;73.73
71476;BME280;59286;59.274;17.974;2023-04-28T07:16:01;100998.56;;;6.81;74.56
71476;BME280;59286;59.274;17.974;2023-04-28T07:18:26;101013.19;;;7.07;73.22
71476;BME280;59286;59.274;17.974;2023-04-28T07:20:52;101001.97;;;6.86;70.41
71476;BME280;59286;59.274;17.974;2023-04-28T07:23:18;101000.69;;;7.19;75.52
71476;BME280;59286;59.274;17.974;2023-04-28T07:25:43;100997.28;;;7.24;72.51
71476;BME280;59286;59.274;17.974;2023-04-28T07:28:08;101008.50;;;7.19;71.58
71476;BME280;59286;59.274;17.974;2023-04-28T07:30:34;101004.84;;;7.30;71.62
71476;BME280;59286;59.274;17.974;2023-04-28T07:33:00;101004.00;;;7.65;72.31
71476;BME280;59286;59.274;17.974;2023-04-28T07:35:26;101021.91;;;8.07;69.36
71476;BME280;59286;59.274;17.974;2023-04-28T07:37:51;101009.75;;;7.72;69.34
71476;BME280;59286;59.274;17.974;2023-04-28T07:40:18;101012.84;;;7.74;68.22
71476;BME280;59286;59.274;17.974;2023-04-28T07:42:43;101010.56;;;7.62;67.70
71476;BME280;59286;59.274;17.974;2023-04-28T07:45:09;101014.22;;;7.46;70.23
71476;BME280;59286;59.274;17.974;2023-04-28T07:47:35;101006.69;;;7.20;71.73
71476;BME280;59286;59.274;17.974;2023-04-28T07:50:01;101019.44;;;7.26;70.83
71476;BME280;59286;59.274;17.974;2023-04-28T07:52:31;101026.22;;;7.47;71.13
71476;BME280;59286;59.274;17.974;2023-04-28T07:54:57;101016.31;;;7.49;70.26
71476;BME280;59286;59.274;17.974;2023-04-28T07:57:23;101022.06;;;7.36;70.16
71476;BME280;59286;59.274;17.974;2023-04-28T07:59:48;101030.41;;;7.08;68.77
71476;BME280;59286;59.274;17.974;2023-04-28T08:02:14;101036.28;;;6.48;70.70
71476;BME280;59286;59.274;17.974;2023-04-28T08:04:39;101039.56;;;6.19;72.09
71476;BME280;59286;59.274;17.974;2023-04-28T08:07:05;101048.56;;;6.58;74.07
71476;BME280;59286;59.274;17.974;2023-04-28T08:09:31;101049.59;;;6.62;71.77
71476;BME280;59286;59.274;17.974;2023-04-28T08:11:56;101037.94;;;6.90;72.05
71476;BME280;59286;59.274;17.974;2023-04-28T08:14:23;101039.78;;;7.34;70.95
71476;BME280;59286;59.274;17.974;2023-04-28T08:16:49;101039.28;;;7.32;71.01
71476;BME280;59286;59.274;17.974;2023-04-28T08:19:14;101044.44;;;7.57;71.34
71476;BME280;59286;59.274;17.974;2023-04-28T08:21:40;101042.88;;;7.71;69.89
71476;BME280;59286;59.274;17.974;2023-04-28T08:24:05;101049.88;;;7.86;68.94
71476;BME280;59286;59.274;17.974;2023-04-28T08:26:32;101056.41;;;7.94;69.13
71476;BME280;59286;59.274;17.974;2023-04-28T08:28:57;101061.31;;;8.00;67.82
71476;BME280;59286;59.274;17.974;2023-04-28T08:31:23;101053.59;;;7.30;69.09
71476;BME280;59286;59.274;17.974;2023-04-28T08:33:48;101063.69;;;6.76;70.14
71476;BME280;59286;59.274;17.974;2023-04-28T08:36:15;101071.78;;;6.84;70.80
71476;BME280;59286;59.274;17.974;2023-04-28T08:38:42;101068.41;;;6.94;70.46
71476;BME280;59286;59.274;17.974;2023-04-28T08:41:09;101071.84;;;7.10;71.29
71476;BME280;59286;59.274;17.974;2023-04-28T08:43:35;101080.41;;;6.90;71.24
71476;BME280;59286;59.274;17.974;2023-04-28T08:46:05;101071.56;;;6.96;70.67
71476;BME280;59286;59.274;17.974;2023-04-28T08:48:38;101073.94;;;7.03;70.21
71476;BME280;59286;59.274;17.974;2023-04-28T08:51:05;101078.38;;;7.17;69.79
71476;BME280;59286;59.274;17.974;2023-04-28T08:53:36;101073.66;;;7.04;68.62
71476;BME280;59286;59.274;17.974;2023-04-28T08:56:04;101073.13;;;6.97;70.69
71476;BME280;59286;59.274;17.974;2023-04-28T08:58:30;101084.28;;;6.82;70.13
71476;BME280;59286;59.274;17.974;2023-04-28T09:00:55;101079.09;;;6.98;69.45
71476;BME280;59286;59.274;17.974;2023-04-28T09:03:21;101082.69;;;6.61;70.82
71476;BME280;59286;59.274;17.974;2023-04-28T09:05:46;101082.50;;;7.03;69.91
71476;BME280;59286;59.274;17.974;2023-04-28T09:08:13;101089.34;;;7.49;69.86
71476;BME280;59286;59.274;17.974;2023-04-28T09:10:39;101088.81;;;7.37;67.90
71476;BME280;59286;59.274;17.974;2023-04-28T09:13:04;101076.28;;;7.19;68.25
71476;BME280;59286;59.274;17.974;2023-04-28T09:15:33;101092.97;;;7.08;68.13
71476;BME280;59286;59.274;17.974;2023-04-28T09:18:00;101090.31;;;7.03;68.62
71476;BME280;59286;59.274;17.974;2023-04-28T09:20:28;101086.44;;;7.21;69.03
71476;BME280;59286;59.274;17.974;2023-04-28T09:22:55;101092.44;;;7.26;67.30
71476;BME280;59286;59.274;17.974;2023-04-28T09:25:22;101084.91;;;7.20;69.06
71476;BME280;59286;59.274;17.974;2023-04-28T09:27:48;101101.59;;;7.59;67.32
71476;BME280;59286;59.274;17.974;2023-04-28T09:30:14;101107.59;;;7.54;67.96
71476;BME280;59286;59.274;17.974;2023-04-28T09:32:40;101100.81;;;7.58;67.36
71476;BME280;59286;59.274;17.974;2023-04-28T09:35:06;101089.84;;;7.71;66.25
71476;BME280;59286;59.274;17.974;2023-04-28T09:37:32;101096.09;;;7.91;67.65
71476;BME280;59286;59.274;17.974;2023-04-28T09:40:09;101094.19;;;8.16;65.81
71476;BME280;59286;59.274;17.974;2023-04-28T09:42:39;101099.41;;;8.16;64.37
71476;BME280;59286;59.274;17.974;2023-04-28T09:45:06;101095.56;;;7.94;64.38
71476;BME280;59286;59.274;17.974;2023-04-28T09:47:33;101090.88;;;7.80;65.14
71476;BME280;59286;59.274;17.974;2023-04-28T09:50:03;101099.72;;;7.90;64.72
71476;BME280;59286;59.274;17.974;2023-04-28T09:52:28;101092.38;;;8.07;64.31
71476;BME280;59286;59.274;17.974;2023-04-28T09:54:55;101098.19;;;7.78;63.22
71476;BME280;59286;59.274;17.974;2023-04-28T09:57:21;101087.72;;;7.83;64.25
71476;BME280;59286;59.274;17.974;2023-04-28T09:59:51;101099.66;;;8.20;62.46
71476;BME280;59286;59.274;17.974;2023-04-28T10:02:18;101092.94;;;7.94;62.24
71476;BME280;59286;59.274;17.974;2023-04-28T10:04:48;101098.09;;;8.29;61.72
71476;BME280;59286;59.274;17.974;2023-04-28T10:07:15;101093.44;;;8.06;60.91
71476;BME280;59286;59.274;17.974;2023-04-28T10:09:42;101096.03;;;8.26;60.65
71476;BME280;59286;59.274;17.974;2023-04-28T10:12:21;101102.03;;;8.31;59.74
71476;BME280;59286;59.274;17.974;2023-04-28T10:14:47;101096.47;;;8.48;62.13
71476;BME280;59286;59.274;17.974;2023-04-28T10:17:20;101099.06;;;8.53;58.89
71476;BME280;59286;59.274;17.974;2023-04-28T10:19:47;101103.13;;;8.79;61.07
71476;BME280;59286;59.274;17.974;2023-04-28T10:27:45;101094.38;;;8.50;60.25
71476;BME280;59286;59.274;17.974;2023-04-28T10:32:37;101100.84;;;9.11;55.55
71476;BME280;59286;59.274;17.974;2023-04-28T10:40:32;101106.97;;;8.92;56.38
71476;BME280;59286;59.274;17.974;2023-04-28T10:42:58;101096.75;;;8.41;57.38
71476;BME280;59286;59.274;17.974;2023-04-28T10:48:07;101094.16;;;8.90;58.67
71476;BME280;59286;59.274;17.974;2023-04-28T10:50:33;101087.19;;;9.19;57.22
71476;BME280;59286;59.274;17.974;2023-04-28T10:53:01;101081.47;;;9.12;56.45
71476;BME280;59286;59.274;17.974;2023-04-28T10:55:33;101097.16;;;9.12;55.88
71476;BME280;59286;59.274;17.974;2023-04-28T11:00:47;101094.81;;;8.67;55.92
71476;BME280;59286;59.274;17.974;2023-04-28T11:06:26;101100.28;;;9.14;59.16
71476;BME280;59286;59.274;17.974;2023-04-28T11:09:02;101100.47;;;9.61;56.26
71476;BME280;59286;59.274;17.974;2023-04-28T11:11:32;101088.84;;;9.72;56.25
71476;BME280;59286;59.274;17.974;2023-04-28T11:21:54;101098.56;;;10.48;52.66
71476;BME280;59286;59.274;17.974;2023-04-28T11:24:21;101111.25;;;10.36;52.94
71476;BME280;59286;59.274;17.974;2023-04-28T11:26:47;101112.00;;;10.18;55.54
71476;BME280;59286;59.274;17.974;2023-04-28T11:29:13;101105.47;;;10.15;52.88
71476;BME280;59286;59.274;17.974;2023-04-28T11:31:39;101104.91;;;9.90;54.34
71476;BME280;59286;59.274;17.974;2023-04-28T11:34:09;101112.13;;;10.03;53.80
71476;BME280;59286;59.274;17.974;2023-04-28T11:36:41;101106.31;;;10.06;54.37
71476;BME280;59286;59.274;17.974;2023-04-28T11:39:08;101105.78;;;10.09;53.54
71476;BME280;59286;59.274;17.974;2023-04-28T11:41:44;101105.47;;;10.15;53.15
71476;BME280;59286;59.274;17.974;2023-04-28T11:44:18;101094.09;;;10.25;53.13
71476;BME280;59286;59.274;17.974;2023-04-28T11:46:45;101099.78;;;10.32;52.25
71476;BME280;59286;59.274;17.974;2023-04-28T11:49:43;101099.94;;;10.17;52.37
71476;BME280;59286;59.274;17.974;2023-04-28T11:52:09;101098.69;;;10.14;50.52
71476;BME280;59286;59.274;17.974;2023-04-28T11:54:35;101098.78;;;10.28;51.33
71476;BME280;59286;59.274;17.974;2023-04-28T11:57:01;101103.97;;;10.33;50.04
71476;BME280;59286;59.274;17.974;2023-04-28T11:59:31;101095.72;;;10.63;49.78
71476;BME280;59286;59.274;17.974;2023-04-28T12:02:02;101105.25;;;10.96;50.60
71476;BME280;59286;59.274;17.974;2023-04-28T12:07:19;101100.84;;;11.10;45.99
71476;BME280;59286;59.274;17.974;2023-04-28T12:10:11;101098.47;;;11.46;46.00
71476;BME280;59286;59.274;17.974;2023-04-28T12:12:37;101090.19;;;11.52;44.35
71476;BME280;59286;59.274;17.974;2023-04-28T12:15:04;101090.66;;;11.73;46.29
71476;BME280;59286;59.274;17.974;2023-04-28T12:17:32;101087.38;;;11.81;46.61
71476;BME280;59286;59.274;17.974;2023-04-28T12:20:03;101101.09;;;11.46;46.66
71476;BME280;59286;59.274;17.974;2023-04-28T12:22:29;101104.94;;;11.35;46.13
71476;BME280;59286;59.274;17.974;2023-04-28T12:25:08;101096.53;;;11.51;43.68
71476;BME280;59286;59.274;17.974;2023-04-28T12:27:34;101092.81;;;11.39;46.02
71476;BME280;59286;59.274;17.974;2023-04-28T12:30:03;101093.81;;;11.24;46.95
71476;BME280;59286;59.274;17.974;2023-04-28T12:32:41;101106.66;;;11.26;45.67
71476;BME280;59286;59.274;17.974;2023-04-28T12:35:09;101103.59;;;11.00;46.88
71476;BME280;59286;59.274;17.974;2023-04-28T12:37:35;101100.50;;;10.98;47.47
71476;BME280;59286;59.274;17.974;2023-04-28T12:40:03;101095.25;;;10.61;45.46
71476;BME280;59286;59.274;17.974;2023-04-28T12:42:29;101097.41;;;10.54;47.44
71476;BME280;59286;59.274;17.974;2023-04-28T12:44:54;101100.03;;;10.54;47.71
71476;BME280;59286;59.274;17.974;2023-04-28T12:47:20;101108.25;;;10.47;45.84
71476;BME280;59286;59.274;17.974;2023-04-28T12:49:45;101104.00;;;10.51;47.63
71476;BME280;59286;59.274;17.974;2023-04-28T12:52:12;101092.66;;;10.56;46.92
71476;BME280;59286;59.274;17.974;2023-04-28T12:54:37;101089.84;;;10.52;47.40
71476;BME280;59286;59.274;17.974;2023-04-28T12:57:03;101093.59;;;10.65;48.27
71476;BME280;59286;59.274;17.974;2023-04-28T12:59:29;101089.06;;;10.70;47.92
71476;BME280;59286;59.274;17.974;2023-04-28T13:01:55;101093.19;;;10.77;47.37
71476;BME280;59286;59.274;17.974;2023-04-28T13:04:20;101092.13;;;10.59;46.28
71476;BME280;59286;59.274;17.974;2023-04-28T13:06:47;101087.81;;;10.68;47.45
71476;BME280;59286;59.274;17.974;2023-04-28T13:09:13;101083.69;;;10.62;47.26
71476;BME280;59286;59.274;17.974;2023-04-28T13:11:39;101087.03;;;10.67;47.08
71476;BME280;59286;59.274;17.974;2023-04-28T13:14:05;101092.34;;;10.81;47.07
71476;BME280;59286;59.274;17.974;2023-04-28T13:16:31;101083.81;;;10.89;46.49